createdAt,value
2022-08-20T05:48:35.733Z,99646.06
2022-08-20T05:52:38.585Z,99650.06
2022-08-20T05:56:41.642Z,99655.63
2022-08-20T06:00:44.221Z,99657.59
2022-08-20T06:04:48.099Z,99657.69
2022-08-20T06:08:58.879Z,99656.22
2022-08-20T06:13:02.887Z,99665.69
2022-08-20T06:17:07.861Z,99665.59
2022-08-20T06:21:11.764Z,99670.94
2022-08-20T06:25:14.331Z,99675.59
2022-08-20T06:29:16.985Z,99676.94
2022-08-20T06:33:19.568Z,99669.00
2022-08-20T06:37:30.851Z,99675.22
2022-08-20T06:41:37.161Z,99683.16
2022-08-20T06:45:40.659Z,99683.53
2022-08-20T06:49:43.248Z,99678.09
2022-08-20T06:53:47.344Z,99680.28
2022-08-20T06:57:59.309Z,99676.13
2022-08-20T07:02:01.959Z,99673.63
2022-08-20T07:06:05.094Z,99676.66
2022-08-20T07:10:12.196Z,99674.84
2022-08-20T07:14:14.963Z,99672.38
2022-08-20T07:18:17.893Z,99668.22
2022-08-20T07:22:31.114Z,99668.94
2022-08-20T07:26:35.353Z,99666.00
2022-08-20T07:30:57.824Z,99658.44
2022-08-20T07:35:00.552Z,99661.91
2022-08-20T07:39:05.730Z,99665.94
2022-08-20T07:43:10.683Z,99663.09
2022-08-20T07:47:14.107Z,99667.59
2022-08-20T07:51:19.126Z,99671.72
2022-08-20T07:55:22.828Z,99670.34
2022-08-20T07:59:26.756Z,99673.81
2022-08-20T08:03:39.907Z,99679.78
2022-08-20T08:07:52.088Z,99689.16
2022-08-20T08:11:57.515Z,99696.06
2022-08-20T08:16:02.119Z,99698.25
2022-08-20T08:20:06.930Z,99706.63
2022-08-20T08:24:12.127Z,99714.59
2022-08-20T08:28:16.107Z,99714.03
2022-08-20T08:32:20.079Z,99710.41
2022-08-20T08:36:22.610Z,99707.47
2022-08-20T08:40:25.188Z,99708.72
2022-08-20T08:44:31.119Z,99709.22
2022-08-20T08:48:38.312Z,99714.88
2022-08-20T08:52:42.080Z,99715.06
2022-08-20T08:56:49.703Z,99714.75
2022-08-20T09:00:56.487Z,99707.94
2022-08-20T09:05:05.101Z,99721.06
2022-08-20T09:09:12.196Z,99719.56
2022-08-20T09:13:14.759Z,99714.22
2022-08-20T09:17:19.097Z,99726.06
2022-08-20T09:21:22.974Z,99725.91
2022-08-20T09:25:26.040Z,99721.44
2022-08-20T09:29:29.356Z,99724.63
2022-08-20T09:33:32.102Z,99719.03
2022-08-20T09:37:37.725Z,99720.44
2022-08-20T09:41:41.331Z,99718.63
2022-08-20T09:45:43.944Z,99718.09
2022-08-20T09:49:47.260Z,99719.75
2022-08-20T09:53:51.561Z,99722.81
2022-08-20T09:57:54.716Z,99727.25
2022-08-20T10:01:58.221Z,99721.19
2022-08-20T10:06:00.865Z,99720.66
2022-08-20T10:10:06.431Z,99725.97
2022-08-20T10:14:09.075Z,99729.38
2022-08-20T10:18:12.280Z,99727.19
2022-08-20T10:22:15.131Z,99718.75
2022-08-20T10:26:19.243Z,99712.72
2022-08-20T10:30:22.728Z,99727.09
2022-08-20T10:34:26.382Z,99715.88
2022-08-20T10:38:29.083Z,99708.72
2022-08-20T10:42:33.009Z,99707.59
2022-08-20T10:46:35.776Z,99708.66
2022-08-20T10:50:38.366Z,99708.47
2022-08-20T10:54:42.254Z,99707.25
2022-08-20T10:58:46.173Z,99706.22
2022-08-20T11:02:48.813Z,99708.47
2022-08-20T11:06:51.403Z,99711.84
2022-08-20T11:10:54.043Z,99713.69
2022-08-20T11:14:57.898Z,99713.06
2022-08-20T11:19:00.512Z,99727.16
2022-08-20T11:23:03.079Z,99721.13
2022-08-20T11:27:07.570Z,99726.28
2022-08-20T11:31:11.572Z,99737.16
2022-08-20T11:35:40.984Z,99743.09
2022-08-20T11:39:41.617Z,99748.00
2022-08-20T11:43:59.494Z,99741.44
2022-08-20T11:48:08.378Z,99743.38
2022-08-20T11:52:10.937Z,99745.28
2022-08-20T11:56:18.061Z,99754.78
2022-08-20T12:00:32.039Z,99753.97
2022-08-20T12:04:37.279Z,99754.66
2022-08-20T12:08:40.012Z,99752.19
2022-08-20T12:12:42.587Z,99747.94
2022-08-20T12:16:45.162Z,99740.44
2022-08-20T12:20:50.851Z,99743.16
2022-08-20T12:24:54.234Z,99747.63
2022-08-20T12:28:56.786Z,99739.31
2022-08-20T12:32:59.696Z,99745.25
2022-08-20T12:37:05.645Z,99738.84
2022-08-20T12:41:08.267Z,99724.91
2022-08-20T12:45:11.762Z,99721.78
2022-08-20T12:49:14.332Z,99730.63
2022-08-20T12:53:18.614Z,99724.34
2022-08-20T12:57:26.261Z,99722.88
2022-08-20T13:01:28.860Z,99731.66
2022-08-20T13:05:31.825Z,99728.56
2022-08-20T13:09:35.693Z,99730.13
2022-08-20T13:13:43.501Z,99747.34
2022-08-20T13:17:46.173Z,99739.25
2022-08-20T13:21:54.856Z,99736.09
2022-08-20T13:25:59.139Z,99734.88
2022-08-20T13:30:01.679Z,99742.59
2022-08-20T13:34:04.346Z,99748.50
2022-08-20T13:38:07.117Z,99731.06
2022-08-20T13:42:11.615Z,99737.25
2022-08-20T13:46:14.239Z,99722.38
2022-08-20T13:50:20.250Z,99719.97
2022-08-20T13:54:23.960Z,99715.00
2022-08-20T13:58:33.660Z,99721.66
2022-08-20T14:02:36.214Z,99720.94
2022-08-20T14:06:38.780Z,99717.19
2022-08-20T14:10:42.537Z,99722.81
2022-08-20T14:14:46.867Z,99725.03
2022-08-20T14:18:52.734Z,99730.44
2022-08-20T14:22:55.794Z,99735.13
2022-08-20T14:26:58.362Z,99764.03
2022-08-20T14:31:02.300Z,99765.53
2022-08-20T14:35:05.920Z,99766.25
2022-08-20T14:39:08.726Z,99767.41
2022-08-20T14:43:11.171Z,99768.28
2022-08-20T14:47:18.759Z,99781.59
2022-08-20T14:51:21.328Z,99789.53
2022-08-20T14:55:26.579Z,99789.19
2022-08-20T14:59:29.229Z,99790.22
2022-08-20T15:03:33.104Z,99783.94
2022-08-20T15:07:38.581Z,99784.72
2022-08-20T15:11:41.404Z,99783.31
2022-08-20T15:15:43.859Z,99789.91
2022-08-20T15:19:47.767Z,99790.59
2022-08-20T15:23:50.470Z,99778.00
2022-08-20T15:27:58.320Z,99765.09
2022-08-20T15:32:04.712Z,99760.16
2022-08-20T15:36:10.836Z,99746.41
2022-08-20T15:40:16.784Z,99749.84
2022-08-20T15:44:19.424Z,99750.75
2022-08-20T15:48:31.521Z,99752.41
2022-08-20T15:52:42.100Z,99753.16
2022-08-20T15:56:53.740Z,99754.59
2022-08-20T16:01:24.457Z,99752.84
2022-08-20T16:05:41.800Z,99749.13
2022-08-20T16:10:00.577Z,99757.03
2022-08-20T16:14:11.747Z,99754.22
2022-08-20T16:18:20.167Z,99761.72
2022-08-20T16:22:33.041Z,99763.81
2022-08-20T16:26:52.362Z,99771.16
2022-08-20T16:31:02.766Z,99777.66
2022-08-20T16:35:26.282Z,99772.63
2022-08-20T16:39:40.363Z,99773.75
2022-08-20T16:43:51.973Z,99764.75
2022-08-20T16:48:00.068Z,99762.06
2022-08-20T16:52:02.795Z,99767.16
2022-08-20T16:56:06.202Z,99766.63
2022-08-20T17:00:14.576Z,99762.91
2022-08-20T17:04:21.904Z,99758.13
2022-08-20T17:08:28.432Z,99752.66
2022-08-20T17:12:32.406Z,99751.53
2022-08-20T17:16:38.288Z,99752.53
2022-08-20T17:20:46.048Z,99761.94
2022-08-20T17:24:48.943Z,99756.19
2022-08-20T17:28:53.218Z,99768.03
2022-08-20T17:33:00.424Z,99764.09
2022-08-20T17:37:08.379Z,99769.38
2022-08-20T17:41:17.196Z,99778.72
2022-08-20T17:45:23.631Z,99775.06
2022-08-20T17:49:35.588Z,99778.03
2022-08-20T17:53:41.034Z,99775.47
2022-08-20T17:57:46.272Z,99773.47
2022-08-20T18:01:58.366Z,99770.91
2022-08-20T18:06:08.423Z,99762.88
2022-08-20T18:10:16.619Z,99764.41
2022-08-20T18:14:43.888Z,99780.69
2022-08-20T18:18:56.599Z,99795.19
2022-08-20T18:23:04.458Z,99809.84
2022-08-20T18:27:14.848Z,99807.31
2022-08-20T18:31:27.884Z,99814.09
2022-08-20T18:35:35.150Z,99813.75
2022-08-20T18:39:41.443Z,99820.63
2022-08-20T18:43:44.600Z,99828.63
2022-08-20T18:47:47.735Z,99836.91
2022-08-20T18:51:51.766Z,99839.25
2022-08-20T18:56:05.035Z,99831.31
2022-08-20T19:00:11.921Z,99821.44
2022-08-20T19:04:24.308Z,99822.28
2022-08-20T19:08:40.084Z,99827.75
2022-08-20T19:13:14.185Z,99837.63
2022-08-20T19:17:24.736Z,99835.47
2022-08-20T19:21:32.519Z,99832.13
2022-08-20T19:25:37.831Z,99846.13
2022-08-20T19:29:47.181Z,99842.25
2022-08-20T19:33:51.604Z,99843.59
2022-08-20T19:37:54.466Z,99845.31
2022-08-20T19:41:59.513Z,99849.19
2022-08-20T19:46:03.536Z,99840.94
2022-08-20T19:50:18.318Z,99845.06
2022-08-20T19:54:22.438Z,99842.03
2022-08-20T19:58:26.653Z,99845.56
2022-08-20T20:02:33.007Z,99851.03
2022-08-20T20:06:38.763Z,99846.06
2022-08-20T20:10:41.465Z,99860.94
2022-08-20T20:14:45.305Z,99857.31
2022-08-20T20:19:09.091Z,99859.22
2022-08-20T20:23:15.866Z,99864.69
2022-08-20T20:27:23.365Z,99864.97
2022-08-20T20:31:30.242Z,99860.59
2022-08-20T20:35:36.300Z,99861.88
2022-08-20T20:39:41.676Z,99867.09
2022-08-20T20:43:44.692Z,99862.84
2022-08-20T20:47:50.140Z,99856.00
2022-08-20T20:51:58.766Z,99859.63
2022-08-20T20:56:01.422Z,99854.88
2022-08-20T21:00:06.288Z,99856.25
2022-08-20T21:04:09.337Z,99865.38
2022-08-20T21:08:13.600Z,99862.50
2022-08-20T21:12:16.202Z,99869.66
2022-08-20T21:16:18.890Z,99864.69
2022-08-20T21:20:22.508Z,99866.31
2022-08-20T21:24:26.494Z,99874.66
2022-08-20T21:28:29.816Z,99866.53
2022-08-20T21:32:32.688Z,99869.28
2022-08-20T21:36:35.560Z,99880.91
2022-08-20T21:40:39.466Z,99875.34
2022-08-20T21:44:47.955Z,99878.63
2022-08-20T21:48:52.323Z,99879.41
2022-08-20T21:52:59.134Z,99880.22
2022-08-20T21:57:07.218Z,99887.78
2022-08-20T22:01:09.859Z,99881.34
2022-08-20T22:05:12.535Z,99881.72
2022-08-20T22:09:15.858Z,99877.59
2022-08-20T22:13:19.996Z,99881.94
2022-08-20T22:17:22.584Z,99879.22
2022-08-20T22:21:27.591Z,99872.25
2022-08-20T22:25:30.365Z,99868.63
2022-08-20T22:29:34.316Z,99860.44
2022-08-20T22:33:37.344Z,99865.38
2022-08-20T22:37:40.006Z,99866.44
2022-08-20T22:41:42.565Z,99861.56
2022-08-20T22:45:49.662Z,99859.63
2022-08-20T22:49:52.334Z,99854.94
2022-08-20T22:53:54.970Z,99862.03
2022-08-20T22:57:57.620Z,99859.44
2022-08-20T23:02:08.330Z,99864.88
2022-08-20T23:06:11.879Z,99862.41
2022-08-20T23:10:15.113Z,99859.53
2022-08-20T23:14:17.641Z,99852.78
2022-08-20T23:18:21.581Z,99854.31
2022-08-20T23:22:24.169Z,99854.88
2022-08-20T23:26:26.761Z,99856.28
2022-08-20T23:30:29.951Z,99841.25
2022-08-20T23:34:33.709Z,99840.84
2022-08-20T23:38:36.531Z,99841.56
2022-08-20T23:42:39.492Z,99843.84
2022-08-20T23:46:42.075Z,99841.25
2022-08-20T23:50:46.142Z,99845.75
2022-08-20T23:54:48.731Z,99854.25
2022-08-20T23:58:51.415Z,99857.59
